sensor_id;sensor_type;location;lat;lon;timestamp;P1;durP1;ratioP1;P2;durP2;ratioP2
38901;SDS011;24661;53.566;9.910;2023-02-01T00:00:09;20.40;;;4.90;;
38901;SDS011;24661;53.566;9.910;2023-02-01T00:02:36;25.57;;;6.63;;
38901;SDS011;24661;53.566;9.910;2023-02-01T00:05:05;23.17;;;4.77;;
38901;SDS011;24661;53.566;9.910;2023-02-01T00:07:31;38.10;;;7.03;;
38901;SDS011;24661;53.566;9.910;2023-02-01T00:09:57;23.10;;;4.50;;
38901;SDS011;24661;53.566;9.910;2023-02-01T00:12:22;15.00;;;3.87;;
38901;SDS011;24661;53.566;9.910;2023-02-01T00:14:48;26.83;;;4.47;;
38901;SDS011;24661;53.566;9.910;2023-02-01T00:17:14;20.97;;;4.97;;
38901;SDS011;24661;53.566;9.910;2023-02-01T00:19:39;21.10;;;5.33;;
38901;SDS011;24661;53.566;9.910;2023-02-01T00:22:05;27.93;;;4.57;;
38901;SDS011;24661;53.566;9.910;2023-02-01T00:24:30;29.33;;;4.50;;
38901;SDS011;24661;53.566;9.910;2023-02-01T00:26:56;22.03;;;4.50;;
38901;SDS011;24661;53.566;9.910;2023-02-01T00:29:22;22.73;;;4.50;;
38901;SDS011;24661;53.566;9.910;2023-02-01T00:31:49;24.87;;;4.57;;
38901;SDS011;24661;53.566;9.910;2023-02-01T00:34:18;24.60;;;4.67;;
38901;SDS011;24661;53.566;9.910;2023-02-01T00:36:45;27.90;;;5.07;;
38901;SDS011;24661;53.566;9.910;2023-02-01T00:39:11;29.70;;;4.63;;
38901;SDS011;24661;53.566;9.910;2023-02-01T00:41:37;25.23;;;4.57;;
38901;SDS011;24661;53.566;9.910;2023-02-01T00:44:03;29.40;;;6.40;;
38901;SDS011;24661;53.566;9.910;2023-02-01T00:46:29;31.53;;;5.23;;
38901;SDS011;24661;53.566;9.910;2023-02-01T00:48:55;32.67;;;6.10;;
38901;SDS011;24661;53.566;9.910;2023-02-01T00:51:23;26.43;;;4.90;;
38901;SDS011;24661;53.566;9.910;2023-02-01T00:53:51;28.70;;;5.37;;
38901;SDS011;24661;53.566;9.910;2023-02-01T00:56:17;24.63;;;5.23;;
38901;SDS011;24661;53.566;9.910;2023-02-01T00:58:43;37.67;;;5.13;;
38901;SDS011;24661;53.566;9.910;2023-02-01T01:03:40;30.10;;;5.60;;
38901;SDS011;24661;53.566;9.910;2023-02-01T01:06:09;56.23;;;8.10;;
38901;SDS011;24661;53.566;9.910;2023-02-01T01:08:40;42.77;;;5.53;;
38901;SDS011;24661;53.566;9.910;2023-02-01T01:11:10;28.27;;;6.77;;
38901;SDS011;24661;53.566;9.910;2023-02-01T01:13:37;35.57;;;7.00;;
38901;SDS011;24661;53.566;9.910;2023-02-01T01:16:04;32.93;;;8.43;;
38901;SDS011;24661;53.566;9.910;2023-02-01T01:18:32;30.37;;;5.87;;
38901;SDS011;24661;53.566;9.910;2023-02-01T01:20:58;28.53;;;5.33;;
38901;SDS011;24661;53.566;9.910;2023-02-01T01:23:24;23.27;;;5.73;;
38901;SDS011;24661;53.566;9.910;2023-02-01T01:25:50;34.60;;;5.80;;
38901;SDS011;24661;53.566;9.910;2023-02-01T01:28:16;33.63;;;5.70;;
38901;SDS011;24661;53.566;9.910;2023-02-01T01:30:41;45.37;;;6.97;;
38901;SDS011;24661;53.566;9.910;2023-02-01T01:33:07;31.57;;;5.80;;
38901;SDS011;24661;53.566;9.910;2023-02-01T01:35:33;28.30;;;6.33;;
38901;SDS011;24661;53.566;9.910;2023-02-01T01:38:00;29.50;;;5.63;;
38901;SDS011;24661;53.566;9.910;2023-02-01T01:40:26;31.40;;;7.70;;
38901;SDS011;24661;53.566;9.910;2023-02-01T01:42:52;25.80;;;5.93;;
38901;SDS011;24661;53.566;9.910;2023-02-01T01:47:48;30.43;;;6.07;;
38901;SDS011;24661;53.566;9.910;2023-02-01T01:50:19;36.87;;;5.73;;
38901;SDS011;24661;53.566;9.910;2023-02-01T01:52:50;25.80;;;5.50;;
38901;SDS011;24661;53.566;9.910;2023-02-01T01:55:18;34.73;;;6.43;;
38901;SDS011;24661;53.566;9.910;2023-02-01T01:57:48;32.07;;;6.90;;
38901;SDS011;24661;53.566;9.910;2023-02-01T02:00:18;26.97;;;5.63;;
38901;SDS011;24661;53.566;9.910;2023-02-01T02:02:46;29.43;;;5.33;;
38901;SDS011;24661;53.566;9.910;2023-02-01T02:05:16;43.87;;;5.43;;
38901;SDS011;24661;53.566;9.910;2023-02-01T02:07:45;40.27;;;6.37;;
38901;SDS011;24661;53.566;9.910;2023-02-01T02:10:14;27.60;;;5.17;;
38901;SDS011;24661;53.566;9.910;2023-02-01T02:12:40;44.67;;;5.73;;
38901;SDS011;24661;53.566;9.910;2023-02-01T02:15:09;27.60;;;5.70;;
38901;SDS011;24661;53.566;9.910;2023-02-01T02:21:35;22.60;;;4.70;;
38901;SDS011;24661;53.566;9.910;2023-02-01T02:40:27;31.73;;;5.60;;
38901;SDS011;24661;53.566;9.910;2023-02-01T02:46:12;38.00;;;7.40;;
38901;SDS011;24661;53.566;9.910;2023-02-01T02:51:58;27.97;;;5.03;;
38901;SDS011;24661;53.566;9.910;2023-02-01T02:54:48;28.93;;;5.87;;
38901;SDS011;24661;53.566;9.910;2023-02-01T02:57:50;28.97;;;5.73;;
38901;SDS011;24661;53.566;9.910;2023-02-01T03:00:28;41.80;;;5.83;;
38901;SDS011;24661;53.566;9.910;2023-02-01T03:03:15;29.57;;;5.93;;
38901;SDS011;24661;53.566;9.910;2023-02-01T03:05:59;36.53;;;6.70;;
38901;SDS011;24661;53.566;9.910;2023-02-01T03:08:26;25.50;;;5.23;;
38901;SDS011;24661;53.566;9.910;2023-02-01T03:16:18;31.80;;;6.27;;
38901;SDS011;24661;53.566;9.910;2023-02-01T03:18:55;31.67;;;6.00;;
38901;SDS011;24661;53.566;9.910;2023-02-01T03:21:26;28.77;;;5.73;;
38901;SDS011;24661;53.566;9.910;2023-02-01T03:24:03;20.47;;;5.03;;
38901;SDS011;24661;53.566;9.910;2023-02-01T03:27:01;29.10;;;5.20;;
38901;SDS011;24661;53.566;9.910;2023-02-01T03:29:29;17.23;;;4.23;;
38901;SDS011;24661;53.566;9.910;2023-02-01T03:32:00;11.50;;;2.77;;
38901;SDS011;24661;53.566;9.910;2023-02-01T03:34:25;27.60;;;5.37;;
38901;SDS011;24661;53.566;9.910;2023-02-01T03:36:52;14.77;;;3.30;;
38901;SDS011;24661;53.566;9.910;2023-02-01T03:39:26;20.17;;;3.70;;
38901;SDS011;24661;53.566;9.910;2023-02-01T03:42:18;19.57;;;3.40;;
38901;SDS011;24661;53.566;9.910;2023-02-01T03:44:51;22.77;;;4.23;;
38901;SDS011;24661;53.566;9.910;2023-02-01T03:47:26;14.37;;;2.57;;
38901;SDS011;24661;53.566;9.910;2023-02-01T03:49:59;16.67;;;2.83;;
38901;SDS011;24661;53.566;9.910;2023-02-01T03:52:30;24.83;;;2.90;;
38901;SDS011;24661;53.566;9.910;2023-02-01T03:55:01;14.63;;;2.87;;
38901;SDS011;24661;53.566;9.910;2023-02-01T03:57:29;24.63;;;4.53;;
38901;SDS011;24661;53.566;9.910;2023-02-01T04:02:33;26.07;;;5.73;;
38901;SDS011;24661;53.566;9.910;2023-02-01T04:04:59;23.10;;;3.43;;
38901;SDS011;24661;53.566;9.910;2023-02-01T04:07:25;20.50;;;3.70;;
38901;SDS011;24661;53.566;9.910;2023-02-01T04:09:50;20.90;;;3.80;;
38901;SDS011;24661;53.566;9.910;2023-02-01T04:12:16;20.70;;;4.73;;
38901;SDS011;24661;53.566;9.910;2023-02-01T04:14:42;23.10;;;3.77;;
38901;SDS011;24661;53.566;9.910;2023-02-01T04:17:07;24.40;;;4.50;;
38901;SDS011;24661;53.566;9.910;2023-02-01T04:19:33;21.43;;;3.90;;
38901;SDS011;24661;53.566;9.910;2023-02-01T04:21:59;20.20;;;3.57;;
38901;SDS011;24661;53.566;9.910;2023-02-01T04:24:24;20.97;;;3.63;;
38901;SDS011;24661;53.566;9.910;2023-02-01T04:26:50;16.33;;;3.47;;
38901;SDS011;24661;53.566;9.910;2023-02-01T04:29:15;20.80;;;4.33;;
38901;SDS011;24661;53.566;9.910;2023-02-01T04:31:41;18.77;;;3.93;;
38901;SDS011;24661;53.566;9.910;2023-02-01T04:34:07;20.67;;;3.97;;
38901;SDS011;24661;53.566;9.910;2023-02-01T04:36:33;11.20;;;2.70;;
38901;SDS011;24661;53.566;9.910;2023-02-01T04:38:59;22.53;;;4.50;;
38901;SDS011;24661;53.566;9.910;2023-02-01T04:41:25;20.93;;;4.43;;
38901;SDS011;24661;53.566;9.910;2023-02-01T04:43:50;17.07;;;3.13;;
38901;SDS011;24661;53.566;9.910;2023-02-01T04:46:17;17.00;;;3.17;;
38901;SDS011;24661;53.566;9.910;2023-02-01T04:48:43;13.63;;;2.80;;
38901;SDS011;24661;53.566;9.910;2023-02-01T04:51:08;13.97;;;2.07;;
38901;SDS011;24661;53.566;9.910;2023-02-01T04:53:34;15.83;;;3.43;;
38901;SDS011;24661;53.566;9.910;2023-02-01T04:56:00;17.03;;;2.83;;
38901;SDS011;24661;53.566;9.910;2023-02-01T04:58:26;6.80;;;1.73;;
38901;SDS011;24661;53.566;9.910;2023-02-01T05:00:52;10.43;;;1.73;;
38901;SDS011;24661;53.566;9.910;2023-02-01T05:03:18;14.63;;;1.70;;
38901;SDS011;24661;53.566;9.910;2023-02-01T05:05:43;6.40;;;1.20;;
38901;SDS011;24661;53.566;9.910;2023-02-01T05:08:09;6.07;;;1.67;;
38901;SDS011;24661;53.566;9.910;2023-02-01T05:10:35;6.10;;;1.27;;
38901;SDS011;24661;53.566;9.910;2023-02-01T05:13:01;4.30;;;0.60;;
38901;SDS011;24661;53.566;9.910;2023-02-01T05:15:45;4.37;;;1.03;;
38901;SDS011;24661;53.566;9.910;2023-02-01T05:18:11;4.10;;;0.90;;
38901;SDS011;24661;53.566;9.910;2023-02-01T05:20:38;4.83;;;0.70;;
38901;SDS011;24661;53.566;9.910;2023-02-01T05:23:04;2.53;;;0.50;;
38901;SDS011;24661;53.566;9.910;2023-02-01T05:25:30;1.23;;;0.60;;
38901;SDS011;24661;53.566;9.910;2023-02-01T05:27:56;3.67;;;1.00;;
38901;SDS011;24661;53.566;9.910;2023-02-01T05:30:22;2.03;;;0.80;;
38901;SDS011;24661;53.566;9.910;2023-02-01T05:32:51;3.07;;;0.67;;
38901;SDS011;24661;53.566;9.910;2023-02-01T05:35:17;4.13;;;0.70;;
38901;SDS011;24661;53.566;9.910;2023-02-01T05:37:43;2.87;;;0.73;;
38901;SDS011;24661;53.566;9.910;2023-02-01T05:40:09;5.07;;;1.63;;
38901;SDS011;24661;53.566;9.910;2023-02-01T05:42:35;2.90;;;0.37;;
38901;SDS011;24661;53.566;9.910;2023-02-01T05:45:01;3.80;;;0.60;;
38901;SDS011;24661;53.566;9.910;2023-02-01T05:47:26;2.10;;;0.70;;
38901;SDS011;24661;53.566;9.910;2023-02-01T05:49:52;1.23;;;0.60;;
38901;SDS011;24661;53.566;9.910;2023-02-01T05:52:17;1.93;;;0.50;;
38901;SDS011;24661;53.566;9.910;2023-02-01T05:54:44;1.77;;;0.50;;
38901;SDS011;24661;53.566;9.910;2023-02-01T05:57:11;1.80;;;0.40;;
38901;SDS011;24661;53.566;9.910;2023-02-01T05:59:37;1.90;;;1.43;;
38901;SDS011;24661;53.566;9.910;2023-02-01T06:02:09;1.27;;;0.43;;
38901;SDS011;24661;53.566;9.910;2023-02-01T06:04:35;4.63;;;0.80;;
38901;SDS011;24661;53.566;9.910;2023-02-01T06:07:00;1.00;;;0.60;;
38901;SDS011;24661;53.566;9.910;2023-02-01T06:09:26;1.83;;;0.70;;
38901;SDS011;24661;53.566;9.910;2023-02-01T06:11:53;3.27;;;0.60;;
38901;SDS011;24661;53.566;9.910;2023-02-01T06:14:19;2.80;;;1.07;;
38901;SDS011;24661;53.566;9.910;2023-02-01T06:16:45;5.00;;;0.87;;
38901;SDS011;24661;53.566;9.910;2023-02-01T06:19:12;4.63;;;0.73;;
38901;SDS011;24661;53.566;9.910;2023-02-01T06:21:38;2.07;;;0.90;;
38901;SDS011;24661;53.566;9.910;2023-02-01T06:24:03;7.30;;;1.30;;
38901;SDS011;24661;53.566;9.910;2023-02-01T06:26:29;8.73;;;1.40;;
38901;SDS011;24661;53.566;9.910;2023-02-01T06:28:55;5.67;;;1.33;;
38901;SDS011;24661;53.566;9.910;2023-02-01T06:31:21;3.57;;;1.57;;
38901;SDS011;24661;53.566;9.910;2023-02-01T06:33:47;4.70;;;1.40;;
38901;SDS011;24661;53.566;9.910;2023-02-01T06:36:13;11.07;;;1.90;;
38901;SDS011;24661;53.566;9.910;2023-02-01T06:38:40;8.10;;;1.73;;
38901;SDS011;24661;53.566;9.910;2023-02-01T06:41:06;10.00;;;2.50;;
38901;SDS011;24661;53.566;9.910;2023-02-01T06:43:32;13.70;;;2.50;;
38901;SDS011;24661;53.566;9.910;2023-02-01T06:46:04;11.43;;;1.97;;
38901;SDS011;24661;53.566;9.910;2023-02-01T06:48:32;5.90;;;1.87;;
38901;SDS011;24661;53.566;9.910;2023-02-01T06:50:58;9.60;;;2.33;;
38901;SDS011;24661;53.566;9.910;2023-02-01T06:53:24;12.87;;;2.10;;
38901;SDS011;24661;53.566;9.910;2023-02-01T06:58:19;7.50;;;1.97;;
38901;SDS011;24661;53.566;9.910;2023-02-01T07:00:45;16.70;;;2.67;;
38901;SDS011;24661;53.566;9.910;2023-02-01T07:03:10;12.20;;;2.33;;
38901;SDS011;24661;53.566;9.910;2023-02-01T07:05:36;24.80;;;3.60;;
38901;SDS011;24661;53.566;9.910;2023-02-01T07:08:01;8.03;;;3.10;;
38901;SDS011;24661;53.566;9.910;2023-02-01T07:10:27;14.57;;;3.10;;
38901;SDS011;24661;53.566;9.910;2023-02-01T07:12:55;21.27;;;3.40;;
38901;SDS011;24661;53.566;9.910;2023-02-01T07:15:22;19.73;;;3.27;;
38901;SDS011;24661;53.566;9.910;2023-02-01T07:17:48;17.23;;;4.47;;
38901;SDS011;24661;53.566;9.910;2023-02-01T07:20:14;21.97;;;4.87;;
38901;SDS011;24661;53.566;9.910;2023-02-01T07:22:40;27.13;;;4.13;;
38901;SDS011;24661;53.566;9.910;2023-02-01T07:25:06;21.57;;;3.93;;
38901;SDS011;24661;53.566;9.910;2023-02-01T07:27:35;23.07;;;5.60;;
38901;SDS011;24661;53.566;9.910;2023-02-01T07:30:01;24.07;;;4.30;;
38901;SDS011;24661;53.566;9.910;2023-02-01T07:32:29;22.77;;;4.10;;
38901;SDS011;24661;53.566;9.910;2023-02-01T07:34:55;38.43;;;5.23;;
38901;SDS011;24661;53.566;9.910;2023-02-01T07:37:21;38.57;;;6.50;;
38901;SDS011;24661;53.566;9.910;2023-02-01T07:39:46;26.17;;;6.50;;
38901;SDS011;24661;53.566;9.910;2023-02-01T07:42:12;35.60;;;4.50;;
38901;SDS011;24661;53.566;9.910;2023-02-01T07:44:38;13.73;;;4.30;;
38901;SDS011;24661;53.566;9.910;2023-02-01T07:47:03;31.80;;;5.73;;
38901;SDS011;24661;53.566;9.910;2023-02-01T07:49:29;36.80;;;7.13;;
38901;SDS011;24661;53.566;9.910;2023-02-01T07:51:55;29.13;;;4.93;;
38901;SDS011;24661;53.566;9.910;2023-02-01T07:54:20;43.53;;;6.70;;
38901;SDS011;24661;53.566;9.910;2023-02-01T07:56:46;30.63;;;4.30;;
38901;SDS011;24661;53.566;9.910;2023-02-01T07:59:11;28.47;;;6.07;;
38901;SDS011;24661;53.566;9.910;2023-02-01T08:01:37;37.93;;;5.90;;
38901;SDS011;24661;53.566;9.910;2023-02-01T08:04:03;36.07;;;5.27;;
38901;SDS011;24661;53.566;9.910;2023-02-01T08:06:31;33.27;;;5.23;;
38901;SDS011;24661;53.566;9.910;2023-02-01T08:08:58;28.03;;;5.03;;
38901;SDS011;24661;53.566;9.910;2023-02-01T08:11:24;43.37;;;5.63;;
38901;SDS011;24661;53.566;9.910;2023-02-01T08:13:51;21.63;;;4.77;;
38901;SDS011;24661;53.566;9.910;2023-02-01T08:16:17;38.20;;;7.23;;
38901;SDS011;24661;53.566;9.910;2023-02-01T08:18:44;30.27;;;5.90;;
38901;SDS011;24661;53.566;9.910;2023-02-01T08:23:38;31.30;;;5.40;;
38901;SDS011;24661;53.566;9.910;2023-02-01T08:26:16;20.90;;;5.03;;
38901;SDS011;24661;53.566;9.910;2023-02-01T08:28:43;35.83;;;6.67;;
38901;SDS011;24661;53.566;9.910;2023-02-01T08:31:12;29.83;;;5.27;;
38901;SDS011;24661;53.566;9.910;2023-02-01T08:33:39;22.93;;;4.60;;
38901;SDS011;24661;53.566;9.910;2023-02-01T08:36:06;24.10;;;5.60;;
38901;SDS011;24661;53.566;9.910;2023-02-01T08:38:37;31.10;;;4.27;;
38901;SDS011;24661;53.566;9.910;2023-02-01T08:41:07;23.10;;;3.80;;
38901;SDS011;24661;53.566;9.910;2023-02-01T08:43:34;23.93;;;4.13;;
38901;SDS011;24661;53.566;9.910;2023-02-01T08:46:01;19.27;;;3.77;;
38901;SDS011;24661;53.566;9.910;2023-02-01T08:48:27;20.33;;;3.73;;
38901;SDS011;24661;53.566;9.910;2023-02-01T08:50:53;18.43;;;3.47;;
38901;SDS011;24661;53.566;9.910;2023-02-01T08:53:18;19.83;;;5.73;;
38901;SDS011;24661;53.566;9.910;2023-02-01T08:55:45;35.23;;;6.77;;
38901;SDS011;24661;53.566;9.910;2023-02-01T08:58:11;30.87;;;5.33;;
38901;SDS011;24661;53.566;9.910;2023-02-01T09:00:39;25.13;;;4.50;;
38901;SDS011;24661;53.566;9.910;2023-02-01T09:03:05;25.33;;;5.80;;
38901;SDS011;24661;53.566;9.910;2023-02-01T09:05:31;28.70;;;5.70;;
38901;SDS011;24661;53.566;9.910;2023-02-01T09:07:57;27.97;;;5.03;;
38901;SDS011;24661;53.566;9.910;2023-02-01T09:10:22;19.33;;;4.97;;
38901;SDS011;24661;53.566;9.910;2023-02-01T09:12:48;28.13;;;6.27;;
38901;SDS011;24661;53.566;9.910;2023-02-01T09:15:13;33.90;;;6.80;;
38901;SDS011;24661;53.566;9.910;2023-02-01T09:17:39;33.73;;;5.03;;
38901;SDS011;24661;53.566;9.910;2023-02-01T09:20:06;21.90;;;4.93;;
38901;SDS011;24661;53.566;9.910;2023-02-01T09:22:33;29.90;;;4.73;;
38901;SDS011;24661;53.566;9.910;2023-02-01T09:24:59;27.33;;;6.10;;
38901;SDS011;24661;53.566;9.910;2023-02-01T09:27:24;23.40;;;4.57;;
38901;SDS011;24661;53.566;9.910;2023-02-01T09:29:50;26.27;;;4.13;;
38901;SDS011;24661;53.566;9.910;2023-02-01T09:32:18;21.70;;;4.37;;
38901;SDS011;24661;53.566;9.910;2023-02-01T09:34:45;21.63;;;5.20;;
38901;SDS011;24661;53.566;9.910;2023-02-01T09:37:11;21.50;;;4.73;;
38901;SDS011;24661;53.566;9.910;2023-02-01T09:39:36;20.77;;;4.43;;
38901;SDS011;24661;53.566;9.910;2023-02-01T09:44:49;26.40;;;3.73;;
38901;SDS011;24661;53.566;9.910;2023-02-01T09:47:24;26.87;;;4.60;;
38901;SDS011;24661;53.566;9.910;2023-02-01T09:49:56;29.30;;;5.20;;
38901;SDS011;24661;53.566;9.910;2023-02-01T09:52:24;24.20;;;5.27;;
38901;SDS011;24661;53.566;9.910;2023-02-01T09:55:01;22.50;;;4.03;;
38901;SDS011;24661;53.566;9.910;2023-02-01T09:57:38;25.37;;;5.60;;
38901;SDS011;24661;53.566;9.910;2023-02-01T10:00:23;22.33;;;4.00;;
38901;SDS011;24661;53.566;9.910;2023-02-01T10:02:54;24.70;;;5.20;;
38901;SDS011;24661;53.566;9.910;2023-02-01T10:05:35;16.73;;;4.23;;
38901;SDS011;24661;53.566;9.910;2023-02-01T10:08:24;23.10;;;3.67;;
38901;SDS011;24661;53.566;9.910;2023-02-01T10:11:03;18.13;;;3.97;;
38901;SDS011;24661;53.566;9.910;2023-02-01T10:14:28;20.57;;;3.53;;
38901;SDS011;24661;53.566;9.910;2023-02-01T10:19:58;25.47;;;4.57;;
38901;SDS011;24661;53.566;9.910;2023-02-01T10:25:13;25.50;;;3.80;;
38901;SDS011;24661;53.566;9.910;2023-02-01T10:27:45;26.70;;;5.73;;
38901;SDS011;24661;53.566;9.910;2023-02-01T10:33:00;25.67;;;4.77;;
38901;SDS011;24661;53.566;9.910;2023-02-01T10:35:45;27.23;;;4.33;;
38901;SDS011;24661;53.566;9.910;2023-02-01T10:38:26;25.67;;;3.70;;
38901;SDS011;24661;53.566;9.910;2023-02-01T10:40:55;25.17;;;4.10;;
38901;SDS011;24661;53.566;9.910;2023-02-01T10:43:26;32.13;;;6.17;;
38901;SDS011;24661;53.566;9.910;2023-02-01T10:45:52;23.90;;;4.10;;
38901;SDS011;24661;53.566;9.910;2023-02-01T10:48:18;23.67;;;5.80;;
38901;SDS011;24661;53.566;9.910;2023-02-01T10:50:47;23.10;;;4.57;;
38901;SDS011;24661;53.566;9.910;2023-02-01T10:56:09;17.37;;;4.27;;
38901;SDS011;24661;53.566;9.910;2023-02-01T10:58:36;22.47;;;5.27;;
38901;SDS011;24661;53.566;9.910;2023-02-01T11:01:19;24.10;;;5.43;;
38901;SDS011;24661;53.566;9.910;2023-02-01T11:08:56;19.93;;;3.80;;
38901;SDS011;24661;53.566;9.910;2023-02-01T11:11:23;21.07;;;3.77;;
38901;SDS011;24661;53.566;9.910;2023-02-01T11:13:54;24.40;;;3.83;;
38901;SDS011;24661;53.566;9.910;2023-02-01T11:16:20;16.60;;;3.53;;
38901;SDS011;24661;53.566;9.910;2023-02-01T11:18:46;19.33;;;4.60;;
38901;SDS011;24661;53.566;9.910;2023-02-01T11:21:20;19.87;;;4.50;;
38901;SDS011;24661;53.566;9.910;2023-02-01T11:23:47;18.10;;;4.33;;
38901;SDS011;24661;53.566;9.910;2023-02-01T11:26:14;18.17;;;3.60;;
38901;SDS011;24661;53.566;9.910;2023-02-01T11:28:52;39.07;;;8.53;;
38901;SDS011;24661;53.566;9.910;2023-02-01T11:31:25;24.33;;;4.80;;
38901;SDS011;24661;53.566;9.910;2023-02-01T11:33:53;27.03;;;4.60;;
38901;SDS011;24661;53.566;9.910;2023-02-01T11:36:24;27.77;;;4.23;;
38901;SDS011;24661;53.566;9.910;2023-02-01T11:39:39;17.13;;;4.47;;
38901;SDS011;24661;53.566;9.910;2023-02-01T11:41:44;20.50;;;3.97;;
38901;SDS011;24661;53.566;9.910;2023-02-01T11:44:37;21.00;;;4.27;;
38901;SDS011;24661;53.566;9.910;2023-02-01T11:49:57;15.57;;;3.33;;
38901;SDS011;24661;53.566;9.910;2023-02-01T12:11:41;14.77;;;2.13;;
38901;SDS011;24661;53.566;9.910;2023-02-01T12:22:54;14.83;;;3.40;;
38901;SDS011;24661;53.566;9.910;2023-02-01T12:41:58;3.77;;;1.03;;
38901;SDS011;24661;53.566;9.910;2023-02-01T12:47:33;4.07;;;1.00;;
38901;SDS011;24661;53.566;9.910;2023-02-01T12:50:05;3.13;;;1.07;;
38901;SDS011;24661;53.566;9.910;2023-02-01T12:52:45;5.00;;;1.23;;
38901;SDS011;24661;53.566;9.910;2023-02-01T13:01:36;3.83;;;0.93;;
38901;SDS011;24661;53.566;9.910;2023-02-01T13:04:11;2.63;;;0.80;;
38901;SDS011;24661;53.566;9.910;2023-02-01T13:06:44;4.90;;;0.90;;
38901;SDS011;24661;53.566;9.910;2023-02-01T13:12:06;1.37;;;1.03;;
38901;SDS011;24661;53.566;9.910;2023-02-01T13:15:39;1.70;;;0.83;;
38901;SDS011;24661;53.566;9.910;2023-02-01T13:17:42;1.10;;;0.50;;
38901;SDS011;24661;53.566;9.910;2023-02-01T13:22:58;1.50;;;0.83;;
38901;SDS011;24661;53.566;9.910;2023-02-01T13:28:18;3.50;;;0.80;;
38901;SDS011;24661;53.566;9.910;2023-02-01T13:33:35;0.70;;;0.57;;
38901;SDS011;24661;53.566;9.910;2023-02-01T13:44:42;1.40;;;0.80;;
38901;SDS011;24661;53.566;9.910;2023-02-01T13:47:31;6.53;;;1.13;;
38901;SDS011;24661;53.566;9.910;2023-02-01T13:55:46;1.23;;;0.60;;
38901;SDS011;24661;53.566;9.910;2023-02-01T13:58:34;3.97;;;1.20;;
38901;SDS011;24661;53.566;9.910;2023-02-01T14:03:53;3.30;;;1.07;;
38901;SDS011;24661;53.566;9.910;2023-02-01T14:09:09;5.67;;;1.10;;
38901;SDS011;24661;53.566;9.910;2023-02-01T14:16:40;4.63;;;0.83;;
38901;SDS011;24661;53.566;9.910;2023-02-01T14:19:20;7.57;;;1.33;;
38901;SDS011;24661;53.566;9.910;2023-02-01T14:24:34;15.67;;;2.20;;
38901;SDS011;24661;53.566;9.910;2023-02-01T14:27:02;9.57;;;1.50;;
38901;SDS011;24661;53.566;9.910;2023-02-01T14:29:38;10.27;;;2.10;;
38901;SDS011;24661;53.566;9.910;2023-02-01T14:32:38;9.03;;;2.10;;
38901;SDS011;24661;53.566;9.910;2023-02-01T14:35:21;6.27;;;1.83;;
38901;SDS011;24661;53.566;9.910;2023-02-01T14:37:58;8.03;;;1.63;;
38901;SDS011;24661;53.566;9.910;2023-02-01T14:40:28;7.97;;;1.30;;
38901;SDS011;24661;53.566;9.910;2023-02-01T14:43:00;12.40;;;2.20;;
38901;SDS011;24661;53.566;9.910;2023-02-01T14:53:27;17.60;;;2.53;;
38901;SDS011;24661;53.566;9.910;2023-02-01T15:01:20;10.40;;;2.60;;
38901;SDS011;24661;53.566;9.910;2023-02-01T15:06:55;12.50;;;3.03;;
38901;SDS011;24661;53.566;9.910;2023-02-01T15:14:25;14.57;;;3.30;;
38901;SDS011;24661;53.566;9.910;2023-02-01T15:16:52;9.23;;;2.13;;
38901;SDS011;24661;53.566;9.910;2023-02-01T15:19:22;6.40;;;2.13;;
38901;SDS011;24661;53.566;9.910;2023-02-01T15:21:51;14.93;;;3.20;;
38901;SDS011;24661;53.566;9.910;2023-02-01T15:26:45;11.13;;;1.73;;
38901;SDS011;24661;53.566;9.910;2023-02-01T15:29:11;11.30;;;2.77;;
38901;SDS011;24661;53.566;9.910;2023-02-01T15:31:42;10.13;;;2.20;;
38901;SDS011;24661;53.566;9.910;2023-02-01T15:34:10;12.53;;;3.30;;
38901;SDS011;24661;53.566;9.910;2023-02-01T15:36:37;11.60;;;3.50;;
38901;SDS011;24661;53.566;9.910;2023-02-01T15:39:45;15.30;;;2.23;;
38901;SDS011;24661;53.566;9.910;2023-02-01T15:41:53;14.87;;;2.97;;
38901;SDS011;24661;53.566;9.910;2023-02-01T15:44:48;25.40;;;4.20;;
38901;SDS011;24661;53.566;9.910;2023-02-01T15:47:18;20.90;;;4.07;;
38901;SDS011;24661;53.566;9.910;2023-02-01T15:49:52;18.30;;;3.03;;
38901;SDS011;24661;53.566;9.910;2023-02-01T15:52:26;11.17;;;2.53;;
38901;SDS011;24661;53.566;9.910;2023-02-01T15:54:54;19.80;;;3.27;;
38901;SDS011;24661;53.566;9.910;2023-02-01T15:57:25;21.20;;;4.37;;
38901;SDS011;24661;53.566;9.910;2023-02-01T15:59:56;14.73;;;3.07;;
38901;SDS011;24661;53.566;9.910;2023-02-01T16:04:59;20.93;;;3.43;;
38901;SDS011;24661;53.566;9.910;2023-02-01T16:07:28;16.87;;;3.77;;
38901;SDS011;24661;53.566;9.910;2023-02-01T16:10:00;22.47;;;3.87;;
38901;SDS011;24661;53.566;9.910;2023-02-01T16:12:45;18.63;;;3.87;;
38901;SDS011;24661;53.566;9.910;2023-02-01T16:15:12;15.40;;;3.37;;
38901;SDS011;24661;53.566;9.910;2023-02-01T16:17:37;18.17;;;2.90;;
38901;SDS011;24661;53.566;9.910;2023-02-01T16:20:03;12.70;;;4.10;;
38901;SDS011;24661;53.566;9.910;2023-02-01T16:22:30;13.77;;;4.87;;
38901;SDS011;24661;53.566;9.910;2023-02-01T16:24:55;16.83;;;3.60;;
38901;SDS011;24661;53.566;9.910;2023-02-01T16:27:22;22.00;;;3.43;;
38901;SDS011;24661;53.566;9.910;2023-02-01T16:29:48;20.57;;;3.77;;
38901;SDS011;24661;53.566;9.910;2023-02-01T16:32:18;23.90;;;4.93;;
38901;SDS011;24661;53.566;9.910;2023-02-01T16:34:46;20.67;;;4.30;;
38901;SDS011;24661;53.566;9.910;2023-02-01T16:37:13;16.93;;;4.30;;
38901;SDS011;24661;53.566;9.910;2023-02-01T16:39:41;17.47;;;4.13;;
38901;SDS011;24661;53.566;9.910;2023-02-01T16:42:11;16.07;;;3.80;;
38901;SDS011;24661;53.566;9.910;2023-02-01T16:44:38;19.40;;;3.90;;
38901;SDS011;24661;53.566;9.910;2023-02-01T16:47:09;33.90;;;4.53;;
38901;SDS011;24661;53.566;9.910;2023-02-01T16:49:40;24.87;;;4.43;;
38901;SDS011;24661;53.566;9.910;2023-02-01T16:52:11;31.13;;;5.13;;
38901;SDS011;24661;53.566;9.910;2023-02-01T16:54:45;25.03;;;4.17;;
38901;SDS011;24661;53.566;9.910;2023-02-01T16:57:13;31.20;;;5.27;;
38901;SDS011;24661;53.566;9.910;2023-02-01T16:59:42;25.17;;;4.67;;
38901;SDS011;24661;53.566;9.910;2023-02-01T17:02:13;61.83;;;8.63;;
38901;SDS011;24661;53.566;9.910;2023-02-01T17:04:41;34.87;;;5.53;;
38901;SDS011;24661;53.566;9.910;2023-02-01T17:07:17;27.47;;;4.53;;
38901;SDS011;24661;53.566;9.910;2023-02-01T17:09:44;32.60;;;5.57;;
38901;SDS011;24661;53.566;9.910;2023-02-01T17:12:18;38.73;;;6.93;;
38901;SDS011;24661;53.566;9.910;2023-02-01T17:14:48;23.33;;;4.63;;
38901;SDS011;24661;53.566;9.910;2023-02-01T17:17:15;36.53;;;5.60;;
38901;SDS011;24661;53.566;9.910;2023-02-01T17:19:46;28.40;;;4.67;;
38901;SDS011;24661;53.566;9.910;2023-02-01T17:22:17;47.00;;;6.63;;
38901;SDS011;24661;53.566;9.910;2023-02-01T17:24:43;26.67;;;4.43;;
38901;SDS011;24661;53.566;9.910;2023-02-01T17:27:09;34.57;;;8.07;;
38901;SDS011;24661;53.566;9.910;2023-02-01T17:29:35;35.53;;;6.60;;
38901;SDS011;24661;53.566;9.910;2023-02-01T17:32:01;33.10;;;5.57;;
38901;SDS011;24661;53.566;9.910;2023-02-01T17:34:28;33.53;;;5.20;;
38901;SDS011;24661;53.566;9.910;2023-02-01T17:36:53;34.93;;;7.40;;
38901;SDS011;24661;53.566;9.910;2023-02-01T17:39:19;28.03;;;6.77;;
38901;SDS011;24661;53.566;9.910;2023-02-01T17:42:04;27.07;;;8.27;;
38901;SDS011;24661;53.566;9.910;2023-02-01T17:44:33;29.97;;;5.43;;
38901;SDS011;24661;53.566;9.910;2023-02-01T17:46:58;33.10;;;5.37;;
38901;SDS011;24661;53.566;9.910;2023-02-01T17:49:24;29.67;;;5.00;;
38901;SDS011;24661;53.566;9.910;2023-02-01T17:51:52;23.57;;;5.67;;
38901;SDS011;24661;53.566;9.910;2023-02-01T17:54:19;25.47;;;4.00;;
38901;SDS011;24661;53.566;9.910;2023-02-01T17:56:45;27.17;;;4.87;;